Time;durP1;ratioP1;P1;durP2;ratioP2;P2;SDS_P1;SDS_P2;PMS_P1;PMS_P2;Temp;Humidity;BMP_temperature;BMP_pressure;BME280_temperature;BME280_humidity;BME280_pressure;Samples;Min_cycle;Max_cycle;Signal;HPM_P1;HPM_P2
2023/09/20 00:02:23;;;;;;;10.43;2.27;;;19.10;99.90;;;;;;7289539;19;20185;-85
2023/09/20 00:04:50;;;;;;;10.00;2.10;;;19.20;99.90;;;;;;7288119;19;20197;-85
2023/09/20 00:07:19;;;;;;;10.97;2.60;;;19.10;99.90;;;;;;7288518;19;20212;-85
2023/09/20 00:09:51;;;;;;;9.97;2.13;;;19.00;99.90;;;;;;7287982;19;20202;-86
2023/09/20 00:12:17;;;;;;;9.93;2.37;;;19.00;99.90;;;;;;7286074;19;20191;-85
2023/09/20 00:14:43;;;;;;;7.77;1.77;;;19.00;99.90;;;;;;7281610;19;20189;-86
2023/09/20 00:17:09;;;;;;;9.20;2.30;;;19.00;99.90;;;;;;7288093;19;20535;-86
2023/09/20 00:19:40;;;;;;;11.67;2.77;;;19.00;99.90;;;;;;7286866;19;20181;-85
2023/09/20 00:22:10;;;;;;;8.27;2.13;;;18.90;99.90;;;;;;7285223;19;20225;-85
2023/09/20 00:24:37;;;;;;;12.80;2.57;;;18.90;99.90;;;;;;7286414;19;20197;-85
2023/09/20 00:27:03;;;;;;;10.73;2.37;;;18.80;99.90;;;;;;7287169;19;20205;-86
2023/09/20 00:29:29;;;;;;;10.90;2.50;;;18.90;99.90;;;;;;7289657;19;20196;-86
2023/09/20 00:31:57;;;;;;;10.80;3.00;;;18.90;99.90;;;;;;7307477;19;20582;-86
2023/09/20 00:34:23;;;;;;;13.27;3.63;;;19.00;99.90;;;;;;7312009;19;20208;-86
2023/09/20 00:36:49;;;;;;;13.40;3.57;;;19.00;99.90;;;;;;7287915;19;20224;-87
2023/09/20 00:39:19;;;;;;;10.90;3.30;;;18.90;99.90;;;;;;7287424;19;20236;-84
2023/09/20 00:41:47;;;;;;;11.90;3.60;;;18.90;99.90;;;;;;7283354;19;20194;-85
2023/09/20 00:44:14;;;;;;;12.50;3.70;;;18.80;99.90;;;;;;7285569;19;20536;-86
2023/09/20 00:46:44;;;;;;;13.13;3.50;;;18.80;99.90;;;;;;7286867;19;20557;-86
2023/09/20 00:49:13;;;;;;;9.90;3.00;;;18.90;99.90;;;;;;7288860;19;20192;-86
2023/09/20 00:51:39;;;;;;;10.70;3.07;;;18.90;99.90;;;;;;7288122;19;20201;-85
2023/09/20 00:54:08;;;;;;;11.37;3.13;;;18.80;99.90;;;;;;7289304;19;20200;-86
2023/09/20 00:56:35;;;;;;;13.73;3.10;;;18.80;99.90;;;;;;7287916;19;20188;-86
2023/09/20 00:59:06;;;;;;;14.07;3.03;;;18.80;99.90;;;;;;7287949;19;20181;-86
2023/09/20 01:01:34;;;;;;;11.67;2.90;;;18.70;99.90;;;;;;7286843;19;20535;-86
2023/09/20 01:04:04;;;;;;;13.40;3.10;;;18.60;99.90;;;;;;7285317;19;20281;-86
2023/09/20 01:06:32;;;;;;;12.77;3.00;;;18.70;99.90;;;;;;7287889;19;20220;-87
2023/09/20 01:09:06;;;;;;;8.30;2.87;;;18.60;99.90;;;;;;7286612;19;20592;-85
2023/09/20 01:11:36;;;;;;;12.17;2.93;;;18.60;99.90;;;;;;7287014;19;20227;-85
2023/09/20 01:14:03;;;;;;;10.53;3.10;;;18.50;99.90;;;;;;7287879;19;20640;-85
2023/09/20 01:16:33;;;;;;;12.43;3.07;;;18.40;99.90;;;;;;7287528;19;20184;-85
2023/09/20 01:19:00;;;;;;;11.33;3.30;;;18.40;99.90;;;;;;7284833;19;20244;-86
2023/09/20 01:21:31;;;;;;;11.63;3.40;;;18.40;99.90;;;;;;7307237;19;20200;-86
2023/09/20 01:24:05;;;;;;;11.53;2.87;;;18.40;99.90;;;;;;7287310;19;20248;-86
2023/09/20 01:26:44;;;;;;;13.43;3.47;;;18.40;99.90;;;;;;7285196;19;20192;-86
2023/09/20 01:29:13;;;;;;;10.33;3.00;;;18.40;99.90;;;;;;7286618;19;20223;-86
2023/09/20 01:31:41;;;;;;;12.90;3.60;;;18.40;99.90;;;;;;7285725;19;20189;-86
2023/09/20 01:34:12;;;;;;;12.77;3.33;;;18.40;99.90;;;;;;7285387;19;20225;-85
2023/09/20 01:36:44;;;;;;;14.03;3.27;;;18.30;99.90;;;;;;7285459;19;20189;-86
2023/09/20 01:39:16;;;;;;;10.40;3.33;;;18.40;99.90;;;;;;7284355;19;20181;-86
2023/09/20 01:41:46;;;;;;;14.40;3.50;;;18.40;99.90;;;;;;7285873;19;20213;-86
2023/09/20 01:44:17;;;;;;;10.60;3.40;;;18.30;99.90;;;;;;7284401;19;20656;-86
2023/09/20 01:46:44;;;;;;;12.47;3.20;;;18.30;99.90;;;;;;7285928;19;20184;-86
2023/09/20 01:49:10;;;;;;;12.87;3.53;;;18.20;99.90;;;;;;7289870;19;20548;-84
2023/09/20 01:51:39;;;;;;;10.70;3.40;;;18.30;99.90;;;;;;7291834;19;20184;-85
2023/09/20 01:54:10;;;;;;;10.73;3.27;;;18.30;99.90;;;;;;7292499;19;20200;-85
2023/09/20 01:56:41;;;;;;;10.03;3.17;;;18.30;99.90;;;;;;7291372;19;20189;-86
2023/09/20 01:59:07;;;;;;;11.87;4.10;;;18.30;99.90;;;;;;7292335;19;20653;-86
2023/09/20 02:01:36;;;;;;;11.80;3.43;;;18.30;99.90;;;;;;7291145;19;20532;-85
2023/09/20 02:04:04;;;;;;;12.93;3.70;;;18.30;99.90;;;;;;7290393;19;20590;-86
2023/09/20 02:06:31;;;;;;;12.70;3.60;;;18.30;99.90;;;;;;7291415;19;20655;-85
2023/09/20 02:08:57;;;;;;;11.53;3.50;;;18.20;99.90;;;;;;7301945;19;20199;-86
2023/09/20 02:11:25;;;;;;;9.53;3.13;;;18.30;99.90;;;;;;7314220;19;20200;-86
2023/09/20 02:13:55;;;;;;;11.50;3.33;;;18.30;99.90;;;;;;7292061;19;20189;-86
2023/09/20 02:16:42;;;;;;;9.80;3.00;;;18.20;99.90;;;;;;7188423;19;2004904;-86
2023/09/20 02:19:08;;;;;;;9.47;2.93;;;18.20;99.90;;;;;;7292797;19;20204;-86
2023/09/20 02:21:36;;;;;;;10.40;2.73;;;18.20;99.90;;;;;;7291400;19;20265;-86
2023/09/20 02:24:06;;;;;;;12.07;3.20;;;18.30;99.90;;;;;;7291243;19;20196;-86
2023/09/20 02:26:40;;;;;;;10.40;2.63;;;18.30;99.90;;;;;;7291515;19;20279;-87
2023/09/20 02:29:07;;;;;;;10.87;2.87;;;18.20;99.90;;;;;;7291649;19;20188;-86
2023/09/20 02:31:36;;;;;;;8.87;2.67;;;18.20;99.90;;;;;;7291016;19;20198;-87
2023/09/20 02:34:08;;;;;;;10.53;2.80;;;18.20;99.90;;;;;;7290383;19;20588;-86
2023/09/20 02:36:34;;;;;;;8.73;2.60;;;18.20;99.90;;;;;;7291303;19;20196;-87
2023/09/20 02:39:12;;;;;;;9.07;3.07;;;18.20;99.90;;;;;;7289810;19;20185;-87
2023/09/20 02:41:41;;;;;;;8.43;2.80;;;18.20;99.90;;;;;;7290429;19;20188;-86
2023/09/20 02:44:08;;;;;;;11.10;2.90;;;18.20;99.90;;;;;;7290665;19;20192;-86
2023/09/20 02:46:50;;;;;;;12.50;3.00;;;18.10;99.90;;;;;;7289425;19;20186;-87
2023/09/20 02:49:16;;;;;;;11.60;2.70;;;18.10;99.90;;;;;;7291461;19;20235;-87
2023/09/20 02:51:48;;;;;;;10.07;2.80;;;18.10;99.90;;;;;;7289159;19;20177;-86
2023/09/20 02:54:17;;;;;;;9.40;3.00;;;18.10;99.90;;;;;;7290017;19;20255;-86
2023/09/20 02:56:49;;;;;;;9.90;2.80;;;18.00;99.90;;;;;;7289942;19;20240;-87
2023/09/20 02:59:20;;;;;;;13.13;3.00;;;18.00;99.90;;;;;;7289810;19;20202;-86
2023/09/20 03:01:47;;;;;;;12.50;2.83;;;18.00;99.90;;;;;;7289458;19;20200;-84
2023/09/20 03:04:15;;;;;;;10.57;3.43;;;17.90;99.90;;;;;;7287413;19;20188;-86
2023/09/20 03:06:48;;;;;;;12.40;3.07;;;17.90;99.90;;;;;;7288214;19;20260;-85
2023/09/20 03:09:17;;;;;;;10.07;3.10;;;17.90;99.90;;;;;;7292506;19;20220;-85
2023/09/20 03:11:46;;;;;;;12.50;2.77;;;17.90;99.90;;;;;;7288269;19;20286;-86
2023/09/20 03:14:40;;;;;;;12.83;2.77;;;17.90;99.90;;;;;;7309375;19;20331;-86
2023/09/20 03:17:46;;;;;;;9.57;2.50;;;18.00;99.90;;;;;;7288394;19;20529;-86
2023/09/20 03:20:32;;;;;;;8.27;3.10;;;17.90;99.90;;;;;;7206786;19;2019378;-85
2023/09/20 03:23:18;;;;;;;8.63;2.60;;;17.80;99.90;;;;;;7187422;19;2004457;-87
2023/09/20 03:25:50;;;;;;;9.23;2.60;;;17.80;99.90;;;;;;7289210;19;20256;-86
2023/09/20 03:28:22;;;;;;;10.77;2.40;;;17.80;99.90;;;;;;7290406;19;20724;-87
2023/09/20 03:31:06;;;;;;;10.10;2.50;;;17.80;99.90;;;;;;7290976;19;20205;-87
2023/09/20 03:33:42;;;;;;;8.47;2.40;;;17.90;99.90;;;;;;7187116;19;2004474;-87
2023/09/20 03:36:17;;;;;;;11.07;2.60;;;17.90;99.90;;;;;;7289080;19;20683;-87
2023/09/20 03:38:57;;;;;;;11.63;2.97;;;17.80;99.90;;;;;;7290271;19;20241;-86
2023/09/20 03:41:27;;;;;;;8.50;2.33;;;17.80;99.90;;;;;;7290731;19;20307;-86
2023/09/20 03:43:56;;;;;;;7.53;2.40;;;17.80;99.90;;;;;;7289950;19;20256;-86
2023/09/20 03:46:26;;;;;;;14.73;2.70;;;17.70;99.90;;;;;;7290107;19;20301;-86
2023/09/20 03:48:57;;;;;;;9.27;2.80;;;17.80;99.90;;;;;;7292125;19;20187;-87
2023/09/20 03:51:33;;;;;;;10.80;2.70;;;17.70;99.90;;;;;;7288149;19;20203;-85
2023/09/20 03:54:03;;;;;;;12.13;3.00;;;17.80;99.90;;;;;;7266505;19;20200;-86
2023/09/20 03:56:31;;;;;;;10.07;2.60;;;17.70;99.90;;;;;;7288095;19;20203;-86
2023/09/20 03:59:06;;;;;;;11.57;2.53;;;17.80;99.90;;;;;;7291073;19;20701;-87
2023/09/20 04:01:37;;;;;;;11.20;2.60;;;17.80;99.90;;;;;;7290751;19;20215;-87
2023/09/20 04:04:11;;;;;;;9.40;2.50;;;17.70;99.90;;;;;;7287946;19;20692;-86
2023/09/20 04:06:48;;;;;;;12.67;2.70;;;17.70;99.90;;;;;;7288137;19;20200;-86
2023/09/20 04:09:20;;;;;;;10.33;2.60;;;17.70;99.90;;;;;;7289985;19;20677;-86
2023/09/20 04:11:54;;;;;;;12.20;2.90;;;17.80;99.90;;;;;;7284812;19;20212;-85
2023/09/20 04:14:23;;;;;;;9.83;2.60;;;17.80;99.90;;;;;;7288700;19;20307;-84
2023/09/20 04:16:50;;;;;;;10.47;3.00;;;17.80;99.90;;;;;;7290020;19;20653;-85
2023/09/20 04:19:26;;;;;;;12.17;2.77;;;17.80;99.90;;;;;;7287020;19;20911;-87
2023/09/20 04:22:04;;;;;;;7.73;2.80;;;17.80;99.90;;;;;;7290855;19;20567;-87
2023/09/20 04:24:31;;;;;;;7.00;2.30;;;17.80;99.90;;;;;;7267347;19;20654;-86
2023/09/20 04:26:59;;;;;;;8.93;2.40;;;17.80;99.90;;;;;;7311235;19;20192;-86
2023/09/20 04:29:28;;;;;;;9.37;3.03;;;17.80;99.90;;;;;;7311107;19;20196;-87
2023/09/20 04:31:57;;;;;;;10.57;2.60;;;17.70;99.90;;;;;;7290656;19;20188;-87
2023/09/20 04:34:29;;;;;;;8.47;2.50;;;17.70;99.90;;;;;;7291597;19;20195;-88
2023/09/20 04:36:58;;;;;;;9.47;2.40;;;17.70;99.90;;;;;;7289238;19;20191;-86
2023/09/20 04:39:35;;;;;;;11.17;2.53;;;17.80;99.90;;;;;;7283999;19;20197;-86
2023/09/20 04:42:07;;;;;;;8.90;2.77;;;17.70;99.90;;;;;;7291376;19;20197;-87
2023/09/20 04:44:34;;;;;;;9.73;2.40;;;17.70;99.90;;;;;;7290139;19;20199;-88
2023/09/20 04:47:14;;;;;;;7.20;2.43;;;17.60;99.90;;;;;;7291685;19;20260;-88
2023/09/20 04:50:07;;;;;;;8.20;3.07;;;17.60;99.90;;;;;;7290798;19;20245;-87
2023/09/20 04:52:35;;;;;;;9.47;2.40;;;17.60;99.90;;;;;;7187693;19;2004430;-87
2023/09/20 04:55:05;;;;;;;8.40;2.37;;;17.60;99.90;;;;;;7290163;19;20201;-86
2023/09/20 04:57:37;;;;;;;9.23;2.80;;;17.60;99.90;;;;;;7289492;19;20260;-86
2023/09/20 05:00:11;;;;;;;9.23;2.40;;;17.70;99.90;;;;;;7290408;19;20197;-87
2023/09/20 05:02:55;;;;;;;8.57;2.37;;;17.60;99.90;;;;;;7290289;19;20590;-86
2023/09/20 05:05:43;;;;;;;8.83;2.70;;;17.60;99.90;;;;;;7289332;19;20650;-87
2023/09/20 05:08:34;;;;;;;8.23;2.23;;;17.60;99.90;;;;;;7189027;19;2004510;-87
2023/09/20 05:11:01;;;;;;;7.30;2.37;;;17.50;99.90;;;;;;7269016;19;20192;-87
2023/09/20 05:13:36;;;;;;;8.03;2.50;;;17.50;99.90;;;;;;7288033;19;20552;-87
2023/09/20 05:16:05;;;;;;;10.83;3.00;;;17.60;99.90;;;;;;7284949;19;20196;-86
2023/09/20 05:18:34;;;;;;;5.53;1.80;;;17.50;99.90;;;;;;7288943;19;20601;-86
2023/09/20 05:21:03;;;;;;;5.97;2.30;;;17.60;99.90;;;;;;7310631;19;20702;-85
2023/09/20 05:23:32;;;;;;;10.07;2.60;;;17.50;99.90;;;;;;7264288;19;20524;-86
2023/09/20 05:26:10;;;;;;;8.00;2.43;;;17.50;99.90;;;;;;7290316;19;20606;-85
2023/09/20 05:28:36;;;;;;;10.03;2.73;;;17.50;99.90;;;;;;7289196;19;20183;-86
2023/09/20 05:31:08;;;;;;;8.67;2.67;;;17.50;99.90;;;;;;7288735;19;20689;-88
2023/09/20 05:33:40;;;;;;;10.47;2.87;;;17.50;99.90;;;;;;7286782;19;20693;-86
2023/09/20 05:36:08;;;;;;;8.57;2.73;;;17.60;99.90;;;;;;7285735;19;20189;-88
2023/09/20 05:38:34;;;;;;;8.80;2.53;;;17.60;99.90;;;;;;7288307;19;20181;-89
2023/09/20 05:41:00;;;;;;;9.07;2.67;;;17.60;99.90;;;;;;7287473;19;20221;-86
2023/09/20 05:43:36;;;;;;;6.57;2.37;;;17.60;99.90;;;;;;7310443;19;20691;-88
2023/09/20 05:46:16;;;;;;;9.67;2.53;;;17.60;99.90;;;;;;7186586;19;2004451;-86
2023/09/20 05:48:42;;;;;;;9.33;2.77;;;17.70;99.90;;;;;;7288159;19;20184;-85
2023/09/20 05:51:10;;;;;;;9.03;2.57;;;17.60;99.90;;;;;;7288569;19;20189;-87
2023/09/20 05:53:36;;;;;;;8.53;2.37;;;17.60;99.90;;;;;;7286424;19;20187;-86
2023/09/20 05:56:07;;;;;;;8.90;2.70;;;17.70;99.90;;;;;;7288121;19;20189;-85
2023/09/20 05:58:34;;;;;;;8.13;2.40;;;17.70;99.90;;;;;;7285814;19;20217;-84
2023/09/20 06:01:00;;;;;;;12.17;2.83;;;17.80;99.90;;;;;;7286086;19;20215;-85
2023/09/20 06:03:37;;;;;;;6.97;2.50;;;17.80;99.90;;;;;;7308825;19;20197;-87
2023/09/20 06:06:07;;;;;;;10.20;2.70;;;18.00;99.90;;;;;;7185940;19;2004472;-88
2023/09/20 06:08:36;;;;;;;6.63;2.33;;;18.10;99.90;;;;;;7287843;19;20191;-88
2023/09/20 06:11:05;;;;;;;6.83;2.20;;;18.20;99.90;;;;;;7286817;19;20189;-87
2023/09/20 06:13:38;;;;;;;9.03;2.57;;;18.30;99.90;;;;;;7288413;19;20198;-86
2023/09/20 06:16:10;;;;;;;12.20;2.70;;;18.30;99.90;;;;;;7287905;19;20197;-87
2023/09/20 06:18:37;;;;;;;12.43;2.47;;;18.40;99.90;;;;;;7288441;19;20203;-85
2023/09/20 06:21:09;;;;;;;9.70;2.60;;;18.40;99.90;;;;;;7285165;19;20197;-88
2023/09/20 06:23:43;;;;;;;8.47;2.30;;;18.50;99.90;;;;;;7289250;19;20189;-87
2023/09/20 06:26:41;;;;;;;11.00;2.90;;;18.60;99.90;;;;;;7274374;19;20196;-86
2023/09/20 06:29:29;;;;;;;9.57;2.63;;;18.80;99.90;;;;;;7288648;19;20207;-88
2023/09/20 06:32:01;;;;;;;7.10;2.30;;;18.90;99.90;;;;;;7281248;19;20200;-85
2023/09/20 06:34:27;;;;;;;8.83;2.23;;;19.30;99.90;;;;;;7305723;19;20184;-86
2023/09/20 06:37:00;;;;;;;9.23;2.30;;;19.80;99.90;;;;;;7292525;19;20670;-86
2023/09/20 06:39:29;;;;;;;6.50;2.30;;;20.10;99.90;;;;;;7313951;19;20188;-86
2023/09/20 06:41:57;;;;;;;9.70;2.50;;;20.40;99.90;;;;;;7292174;19;20199;-84
2023/09/20 06:44:27;;;;;;;5.57;2.00;;;21.30;99.90;;;;;;7292924;19;20839;-85
2023/09/20 06:46:53;;;;;;;6.00;1.80;;;21.90;99.90;;;;;;7294399;19;20188;-86
2023/09/20 06:49:19;;;;;;;7.00;1.90;;;22.90;99.90;;;;;;7293957;19;20205;-86
2023/09/20 06:51:49;;;;;;;8.77;1.90;;;23.50;99.90;;;;;;7288794;19;20189;-86
2023/09/20 06:54:24;;;;;;;7.97;1.93;;;23.50;99.90;;;;;;7288991;19;20178;-87
2023/09/20 06:57:02;;;;;;;5.33;1.97;;;23.90;99.90;;;;;;7292458;19;20188;-86
2023/09/20 06:59:32;;;;;;;7.03;1.80;;;23.90;99.90;;;;;;7270103;19;20192;-85
2023/09/20 07:02:03;;;;;;;5.97;1.97;;;25.20;99.90;;;;;;7307626;19;20185;-85
2023/09/20 07:04:33;;;;;;;9.47;1.90;;;24.90;99.90;;;;;;7298812;19;20548;-85
2023/09/20 07:07:05;;;;;;;8.00;1.87;;;24.70;99.90;;;;;;7291887;19;20197;-86
2023/09/20 07:09:34;;;;;;;5.83;2.20;;;24.20;99.90;;;;;;7292879;19;20219;-84
2023/09/20 07:12:03;;;;;;;9.23;2.10;;;23.70;99.90;;;;;;7290345;19;20663;-83
2023/09/20 07:14:32;;;;;;;8.67;2.10;;;23.80;99.90;;;;;;7291608;19;20196;-84
2023/09/20 07:17:00;;;;;;;8.03;2.00;;;24.20;99.90;;;;;;7306676;19;20773;-82
2023/09/20 07:19:29;;;;;;;8.30;1.90;;;24.00;99.90;;;;;;7298830;19;20689;-83
2023/09/20 07:21:59;;;;;;;6.50;1.97;;;24.10;99.90;;;;;;7312126;19;20218;-82
2023/09/20 07:24:26;;;;;;;5.10;2.03;;;24.00;99.90;;;;;;7290764;19;20686;-84
2023/09/20 07:26:52;;;;;;;6.23;2.00;;;23.90;99.90;;;;;;7289688;19;20645;-84
2023/09/20 07:29:18;;;;;;;7.67;1.60;;;23.60;99.90;;;;;;7291158;19;20330;-83
2023/09/20 07:31:45;;;;;;;20.83;2.90;;;23.20;99.90;;;;;;7289594;19;20637;-82
2023/09/20 07:34:13;;;;;;;7.40;2.10;;;22.80;99.90;;;;;;7292244;19;20197;-85
2023/09/20 07:36:49;;;;;;;8.57;1.97;;;22.00;99.90;;;;;;7290076;19;20207;-85
2023/09/20 07:39:21;;;;;;;6.67;2.00;;;21.70;99.90;;;;;;7292353;19;20226;-86
2023/09/20 07:41:58;;;;;;;6.17;1.80;;;21.40;99.90;;;;;;7290879;19;20554;-86
2023/09/20 07:44:31;;;;;;;4.50;1.90;;;21.50;99.90;;;;;;7293534;19;20197;-86
2023/09/20 07:47:08;;;;;;;9.17;2.10;;;21.40;99.90;;;;;;7267019;19;20543;-87
2023/09/20 07:49:38;;;;;;;5.27;1.50;;;21.20;99.90;;;;;;7291236;19;20195;-87
2023/09/20 07:52:09;;;;;;;4.40;1.70;;;21.20;99.90;;;;;;7290513;19;20200;-86
2023/09/20 07:54:38;;;;;;;8.47;1.60;;;21.20;99.90;;;;;;7289100;19;20202;-86
2023/09/20 07:57:16;;;;;;;3.93;1.60;;;21.30;99.90;;;;;;7287921;19;20187;-85
2023/09/20 07:59:42;;;;;;;4.10;1.47;;;21.50;99.90;;;;;;7290976;19;20191;-85
2023/09/20 08:02:09;;;;;;;5.97;2.23;;;21.50;99.90;;;;;;7289775;19;20261;-87
2023/09/20 08:04:54;;;;;;;8.00;2.20;;;21.70;99.90;;;;;;7290365;19;20541;-87
2023/09/20 08:07:22;;;;;;;4.33;1.60;;;21.90;99.90;;;;;;7291304;19;20192;-86
2023/09/20 08:09:55;;;;;;;6.53;1.70;;;21.80;99.90;;;;;;7290709;19;20357;-85
2023/09/20 08:12:42;;;;;;;6.43;1.70;;;21.70;99.90;;;;;;7289687;19;20196;-85
2023/09/20 08:15:23;;;;;;;7.37;1.70;;;21.80;99.90;;;;;;7187009;19;2004464;-86
2023/09/20 08:20:46;;;;;;;6.47;1.60;;;21.80;99.90;;;;;;7187401;19;2004420;-87
2023/09/20 08:59:54;;;;;;;6.00;1.60;;;23.80;99.90;;;;;;7187359;19;2004417;-87
2023/09/20 09:02:38;;;;;;;6.30;1.60;;;23.70;99.90;;;;;;7290200;19;20192;-88
2023/09/20 09:05:50;;;;;;;6.87;1.40;;;23.50;99.90;;;;;;7184532;19;2019385;-90
2023/09/20 09:08:21;;;;;;;6.17;1.47;;;23.40;99.90;;;;;;7186387;19;2004555;-87
2023/09/20 09:10:55;;;;;;;4.93;1.43;;;23.00;99.90;;;;;;7288579;19;20201;-89
2023/09/20 09:13:31;;;;;;;4.87;1.50;;;22.80;99.90;;;;;;7287187;19;20189;-88
2023/09/20 09:15:57;;;;;;;4.87;1.63;;;22.50;99.90;;;;;;7288592;19;20285;-88
2023/09/20 09:18:38;;;;;;;6.23;1.63;;;22.30;99.90;;;;;;7267281;19;20196;-88
2023/09/20 09:21:12;;;;;;;7.77;1.53;;;22.20;99.90;;;;;;7287635;19;20289;-88
2023/09/20 09:23:46;;;;;;;7.00;1.87;;;22.20;99.90;;;;;;7284193;19;20192;-87
2023/09/20 09:26:16;;;;;;;6.87;2.00;;;22.30;99.90;;;;;;7286703;19;20201;-87
2023/09/20 09:28:48;;;;;;;3.70;1.40;;;22.10;99.90;;;;;;7286370;19;20311;-86
2023/09/20 09:31:26;;;;;;;6.13;1.50;;;21.90;99.90;;;;;;7286413;19;20684;-88
2023/09/20 09:34:01;;;;;;;8.03;1.53;;;21.80;99.90;;;;;;7287108;19;20678;-87
2023/09/20 09:36:27;;;;;;;8.47;1.87;;;21.80;99.90;;;;;;7285676;19;20213;-86
2023/09/20 09:39:14;;;;;;;7.20;1.63;;;21.80;99.90;;;;;;7286919;19;20192;-86
2023/09/20 09:41:53;;;;;;;9.13;1.50;;;21.80;99.90;;;;;;7184633;19;2004418;-85
2023/09/20 09:44:21;;;;;;;4.87;1.50;;;21.60;99.90;;;;;;7288088;19;20208;-87
2023/09/20 09:46:48;;;;;;;6.80;1.50;;;21.60;99.90;;;;;;7286925;19;20186;-85
2023/09/20 09:49:22;;;;;;;6.40;1.50;;;21.60;99.90;;;;;;7287047;19;20197;-85
2023/09/20 09:51:55;;;;;;;5.93;1.40;;;21.80;99.90;;;;;;7288305;19;20229;-86
2023/09/20 09:54:24;;;;;;;7.00;1.90;;;21.70;99.90;;;;;;7287189;19;20194;-87
2023/09/20 09:56:50;;;;;;;8.60;1.40;;;21.90;99.90;;;;;;7284999;19;20203;-87
2023/09/20 09:59:19;;;;;;;4.10;1.27;;;22.10;99.90;;;;;;7285915;19;20196;-87
2023/09/20 10:01:49;;;;;;;6.70;1.47;;;22.10;99.90;;;;;;7288615;19;20263;-85
2023/09/20 10:04:19;;;;;;;7.77;1.43;;;21.90;99.90;;;;;;7288495;19;20190;-89
2023/09/20 10:07:05;;;;;;;4.37;1.40;;;22.10;99.90;;;;;;7285985;19;20188;-87
2023/09/20 10:09:39;;;;;;;6.53;1.43;;;21.90;99.90;;;;;;7287375;19;20183;-87
2023/09/20 10:12:27;;;;;;;6.13;1.53;;;22.10;99.90;;;;;;7293275;19;20251;-87
2023/09/20 10:15:01;;;;;;;7.43;1.37;;;22.40;99.90;;;;;;7270908;19;20297;-87
2023/09/20 10:17:45;;;;;;;6.80;1.30;;;22.60;99.90;;;;;;7315214;19;20193;-87
2023/09/20 10:20:15;;;;;;;6.47;1.40;;;22.50;99.90;;;;;;7292187;19;20208;-86
2023/09/20 10:22:47;;;;;;;3.00;1.20;;;22.30;99.90;;;;;;7281267;19;20209;-87
2023/09/20 10:25:34;;;;;;;7.80;1.63;;;22.00;99.90;;;;;;7292246;19;20526;-87
2023/09/20 10:28:24;;;;;;;4.20;1.30;;;22.00;99.90;;;;;;7190839;19;2004448;-88
2023/09/20 10:31:05;;;;;;;4.30;1.00;;;22.10;99.90;;;;;;7268849;19;20738;-88
2023/09/20 10:33:57;;;;;;;3.87;1.30;;;22.00;99.90;;;;;;7292994;19;20656;-85
2023/09/20 10:36:34;;;;;;;5.37;1.60;;;22.10;99.90;;;;;;7291582;19;20236;-85
2023/09/20 10:39:34;;;;;;;5.73;1.30;;;22.10;99.90;;;;;;7190810;19;2004448;-85
2023/09/20 10:42:12;;;;;;;5.30;1.27;;;22.20;99.90;;;;;;7188636;19;2004473;-84
2023/09/20 10:44:41;;;;;;;3.37;1.20;;;22.20;99.90;;;;;;7290351;19;20196;-84
2023/09/20 10:47:14;;;;;;;7.63;1.60;;;22.10;99.90;;;;;;7291977;19;20187;-85
2023/09/20 10:49:55;;;;;;;7.60;1.90;;;22.10;99.90;;;;;;7291818;19;20211;-85
2023/09/20 10:52:38;;;;;;;7.67;2.53;;;22.10;99.90;;;;;;7290806;19;20189;-84
2023/09/20 10:55:33;;;;;;;6.03;2.30;;;22.20;99.90;;;;;;7188213;19;2004463;-85
2023/09/20 10:58:01;;;;;;;7.27;1.93;;;23.00;99.90;;;;;;7278886;19;20715;-86
2023/09/20 11:00:30;;;;;;;7.03;3.13;;;23.40;99.90;;;;;;7313339;19;20582;-85
2023/09/20 11:03:03;;;;;;;7.10;2.70;;;24.00;99.90;;;;;;7292413;19;20300;-86
2023/09/20 11:09:11;;;;;;;6.13;2.63;;;23.80;99.90;;;;;;7107261;19;2004414;-87
2023/09/20 11:15:20;;;;;;;8.30;2.60;;;23.40;99.90;;;;;;7086123;19;2004452;-90
2023/09/20 11:17:55;;;;;;;4.33;2.20;;;23.10;99.90;;;;;;7292195;19;20189;-90
2023/09/20 11:27:34;;;;;;;4.83;1.20;;;22.70;99.90;;;;;;7210583;19;2004178;-88
2023/09/20 11:30:16;;;;;;;6.60;1.40;;;22.90;99.90;;;;;;7289986;19;20570;-89
2023/09/20 11:32:43;;;;;;;7.30;1.17;;;23.00;99.90;;;;;;7211549;19;2004393;-88
2023/09/20 11:35:35;;;;;;;7.67;1.30;;;23.20;99.90;;;;;;7289164;19;20185;-88
2023/09/20 11:38:37;;;;;;;8.07;1.40;;;23.20;99.90;;;;;;7210968;19;2004647;-88
2023/09/20 11:41:26;;;;;;;7.27;1.40;;;23.20;99.90;;;;;;7189057;19;2004134;-89
2023/09/20 11:44:29;;;;;;;4.97;1.20;;;23.30;99.90;;;;;;7293335;19;20231;-88
2023/09/20 11:48:04;;;;;;;5.03;1.40;;;23.10;99.90;;;;;;7086276;19;2004743;-89
2023/09/20 11:57:58;;;;;;;4.73;1.20;;;22.90;99.90;;;;;;7099019;19;2004525;-89
2023/09/20 12:00:49;;;;;;;6.53;1.33;;;23.00;99.90;;;;;;7268061;19;20196;-89
2023/09/20 12:03:40;;;;;;;5.07;1.20;;;23.10;99.90;;;;;;7310594;19;20759;-89
2023/09/20 12:06:36;;;;;;;4.93;1.30;;;23.20;99.90;;;;;;7289423;19;20199;-90
2023/09/20 12:09:09;;;;;;;5.63;1.20;;;23.10;99.90;;;;;;7279006;19;20197;-88
2023/09/20 12:11:49;;;;;;;5.97;1.00;;;23.30;99.90;;;;;;7291211;19;20193;-89
2023/09/20 12:18:14;;;;;;;5.67;1.20;;;23.60;99.90;;;;;;7290108;19;20224;-90
2023/09/20 12:20:55;;;;;;;4.20;1.40;;;23.70;99.90;;;;;;7085931;19;2004493;-91
2023/09/20 12:23:34;;;;;;;7.37;1.50;;;23.50;99.90;;;;;;7290340;19;20205;-90
2023/09/20 12:26:10;;;;;;;5.00;1.30;;;23.60;99.90;;;;;;7187204;19;2004636;-89
2023/09/20 12:29:28;;;;;;;6.17;1.10;;;23.50;99.90;;;;;;7312270;19;20229;-89
2023/09/20 12:31:32;;;;;;;6.10;1.20;;;23.80;99.90;;;;;;7290936;19;20189;-90
2023/09/20 12:34:06;;;;;;;4.77;1.20;;;24.00;99.90;;;;;;7265396;19;20228;-90
2023/09/20 12:36:58;;;;;;;8.00;1.93;;;23.90;99.90;;;;;;7287384;19;20236;-88
2023/09/20 12:39:36;;;;;;;5.20;1.53;;;23.70;99.90;;;;;;7290057;19;20621;-89
2023/09/20 12:42:09;;;;;;;6.23;1.13;;;23.50;99.90;;;;;;7190811;19;2004441;-89
2023/09/20 12:44:41;;;;;;;4.40;1.40;;;23.30;99.90;;;;;;7290901;19;20184;-89
2023/09/20 12:47:35;;;;;;;4.00;1.07;;;23.40;99.90;;;;;;7291605;19;20661;-90
2023/09/20 12:50:37;;;;;;;6.67;1.30;;;23.60;99.90;;;;;;7188648;19;2004432;-89
2023/09/20 12:53:31;;;;;;;3.63;1.30;;;23.50;99.90;;;;;;7288430;19;20260;-87
2023/09/20 12:56:55;;;;;;;5.43;1.40;;;23.50;99.90;;;;;;7189132;19;2004576;-88
2023/09/20 12:59:49;;;;;;;4.73;1.33;;;23.70;99.90;;;;;;7207535;19;2004430;-89
2023/09/20 13:02:27;;;;;;;5.17;1.20;;;24.10;99.90;;;;;;7188531;19;2004377;-89
2023/09/20 13:05:36;;;;;;;4.87;1.20;;;24.30;99.90;;;;;;7292257;19;20204;-89
2023/09/20 13:08:28;;;;;;;5.27;1.40;;;24.50;99.90;;;;;;7084704;19;2020656;-89
2023/09/20 13:11:10;;;;;;;6.40;1.57;;;24.60;99.90;;;;;;7271561;19;20189;-88
2023/09/20 13:14:08;;;;;;;5.60;1.40;;;24.40;99.90;;;;;;7290667;19;20537;-88
2023/09/20 13:16:40;;;;;;;5.00;1.40;;;24.30;99.90;;;;;;7184403;19;2004584;-89
2023/09/20 13:19:16;;;;;;;6.17;1.63;;;24.20;99.90;;;;;;7287225;19;20185;-89
2023/09/20 13:22:01;;;;;;;6.20;1.47;;;24.20;99.90;;;;;;7284213;19;20196;-89
2023/09/20 13:24:56;;;;;;;7.43;1.40;;;24.10;99.90;;;;;;7286837;19;20299;-89
2023/09/20 13:28:12;;;;;;;6.43;1.70;;;24.30;99.90;;;;;;7083804;19;2004609;-88
2023/09/20 13:30:40;;;;;;;7.70;2.00;;;24.20;99.90;;;;;;7184396;19;2004453;-90
2023/09/20 13:33:30;;;;;;;7.47;1.60;;;24.30;99.90;;;;;;7286142;19;20188;-90
2023/09/20 13:36:58;;;;;;;5.73;1.37;;;24.40;99.90;;;;;;7305006;19;20196;-89
2023/09/20 13:39:30;;;;;;;7.97;1.70;;;24.50;99.90;;;;;;7184723;19;2004387;-90
2023/09/20 13:42:25;;;;;;;4.87;1.57;;;24.50;99.90;;;;;;7184118;19;2004371;-88
2023/09/20 13:45:09;;;;;;;7.80;1.63;;;24.50;99.90;;;;;;7283736;19;20207;-89
2023/09/20 13:47:42;;;;;;;5.83;1.90;;;24.30;99.90;;;;;;7201926;19;2004431;-89
2023/09/20 13:50:31;;;;;;;9.20;2.00;;;24.20;99.90;;;;;;7286832;19;20187;-89
2023/09/20 13:53:37;;;;;;;7.73;2.03;;;24.40;99.90;;;;;;7184809;19;2004446;-88
2023/09/20 13:56:12;;;;;;;5.33;1.87;;;24.50;99.90;;;;;;7185241;19;2004209;-89
2023/09/20 13:59:15;;;;;;;7.80;2.20;;;24.50;99.90;;;;;;7286375;19;20196;-88
2023/09/20 14:01:54;;;;;;;5.90;2.10;;;24.30;99.90;;;;;;7182373;19;2004632;-88
2023/09/20 14:04:36;;;;;;;6.47;2.07;;;24.30;99.90;;;;;;7287543;19;20239;-88
2023/09/20 14:07:17;;;;;;;6.93;2.20;;;24.10;99.90;;;;;;7264452;19;20201;-88
2023/09/20 14:10:15;;;;;;;6.77;2.13;;;24.20;99.90;;;;;;7287067;19;20188;-88
2023/09/20 14:12:51;;;;;;;7.00;2.30;;;24.30;99.90;;;;;;7205007;19;2004536;-87
2023/09/20 14:15:22;;;;;;;6.27;1.97;;;24.30;99.90;;;;;;7277570;19;20225;-88
2023/09/20 14:18:12;;;;;;;6.30;2.20;;;24.00;99.90;;;;;;7287465;19;20197;-88
2023/09/20 14:21:05;;;;;;;7.17;2.00;;;24.30;99.90;;;;;;7183491;19;2004410;-89
2023/09/20 14:26:46;;;;;;;6.80;1.80;;;24.40;99.90;;;;;;7285191;19;20607;-89
2023/09/20 14:29:28;;;;;;;4.57;1.73;;;24.50;99.90;;;;;;7206483;19;2004454;-89
2023/09/20 14:32:08;;;;;;;5.73;2.10;;;24.40;99.90;;;;;;7287134;19;20268;-88